South Kodiak - 310nm Ssw Of Kodiak, Ak (46066) Wave Buoy

1:50am - Tue 25th Oct 2016 All times are UTC.

  • Sig Wave height 5.9ft
  • Swell Direction
  • Peak Period 9s
  • Average Period 8s
  • Wind
  • Sea Temp 50°f
  • Air Temp 48°f
  • Sea Pressure 1021mb

More Historic Weather Station data

Upgrade to MSW Pro to gain access to the past 30 days of data for over 8000 Wavebouys and Weather Stations around the globe.

Join Pro

Comparision Forecast

View Surf forecast
Tue 10/25 1:50am 6ft 9s 8s 2
1021mb 50f 48f
12:50am 6ft 8s 8s 2 4 mph 1021.3mb 50f 48f
Mon 10/24 11:50pm 5.5ft 17s 8s 2
1021.2mb 50f 48f
10:50pm 6ft 17s 8s  -  2 mph 1021.1mb 50f 48f
9:50pm 5.5ft 9s 7s 2 4 mph 1021.2mb 50f 48f
8:50pm 6ft 9s 7s 2 4 mph 1021mb 50f 48f
7:50pm 5.5ft 8s 7s 4 9 mph 1020.4mb 50f 48f
6:50pm 5.5ft 10s 7s 2 4 mph 1020.4mb 50f 47f
5:50pm 6.5ft 9s 7s  -  mph 1020.1mb 50f 47f
4:50pm 6ft 9s 7s 2 7 mph 1019.8mb 50f 47f
3:50pm 6ft 9s 7s 2 7 mph 1019.1mb 50f 47f
2:50pm 6.5ft 9s 7s 4 11 mph 1018.6mb 50f 47f
1:50pm 6.5ft 10s 8s 2 7 mph 1018.1mb 50f 47f
12:50pm 7ft 10s 8s 4 9 mph 1018mb 50f 47f
11:50am 6ft 9s 8s 4 9 mph 1017.9mb 50f 47f
10:50am 6ft 10s 8s 2 4 mph 1018mb 50f 47f
9:50am 5.5ft 9s 8s 4 9 mph 1017.9mb 50f 47f
8:50am 5ft 9s 8s 4 9 mph 1017.7mb 50f 47f
7:50am 5ft 9s 7s 7 9 mph 1017.6mb 50f 47f
6:50am 5ft 9s 7s 4 11 mph 1017mb 50f 47f
5:50am 4.5ft 9s 7s 7 11 mph 1016.6mb 50f 47f
4:50am 4.5ft 10s 7s 9 11 mph 1016.3mb 50f 47f
2:50am 4.5ft 11s 7s 11 13 mph 1016.2mb 50f 47f
1:50am 5ft 7s 7s 11 13 mph 1015.9mb 50f 47f
12:50am 5.5ft 14s 8s 9 11 mph 1015.7mb 50f 47f
Sun 10/23 11:50pm 5.5ft 14s 7s 9 13 mph 1015.9mb 50f 47f
10:50pm 5.5ft 14s 7s 9 11 mph 1016.5mb 50f 47f
9:50pm 5ft 8s 7s 9 11 mph 1017mb 50f 47f
8:50pm 5.5ft 9s 7s 9 11 mph 1017.4mb 50f 47f
7:50pm 5.5ft 8s 7s 4 9 mph 1017.5mb 50f 46f
6:50pm 5ft 8s 7s 4 7 mph 1017.6mb 50f 46f
5:50pm 5.5ft 8s 7s 4 7 mph 1017.3mb 50f 46f
4:50pm 5.5ft 8s 7s 2 4 mph 1017.3mb 50f 46f
3:50pm 6ft 9s 7s 2 4 mph 1017.1mb 50f 46f
2:50pm 6ft 8s 6s 4 7 mph 1017mb 50f 46f
1:50pm 6.5ft 8s 6s 2 4 mph 1017.6mb 50f 46f
12:50pm 7.5ft 8s 7s 2 4 mph 1017.9mb 50f 46f
11:50am 8ft 8s 7s 7 9 mph 1018.1mb 50f 46f
10:50am 8ft 8s 7s 4 7 mph 1018.3mb 50f 46f
9:50am 8.5ft 8s 7s 7 11 mph 1018.1mb 50f 46f
8:50am 9ft 9s 7s 9 13 mph 1018.2mb 50f 46f
7:50am 8.5ft 9s 7s 7 11 mph 1019.1mb 50f 46f
6:50am 9ft 9s 7s 13 16 mph 1018.2mb 50f 46f
5:50am 9ft 10s 7s 11 16 mph 1018.5mb 50f 46f
4:50am 9ft 9s 7s 13 18 mph 1018.7mb 50f 45f
3:50am 11ft 10s 7s 16 22 mph 1018.2mb 51f 45f
2:50am 11.5ft 10s 7s 20 27 mph 1017.2mb 50f 45f
1:50am 12ft 11s 8s 25 31 mph 1017.3mb 51f 45f
12:50am 13ft 11s 8s 22 27 mph 1017.7mb 51f 46f
Sat 10/22 11:50pm 13.5ft 11s 7s 27 34 mph 1017.2mb 51f 45f
10:50pm 15.5ft 10s 8s 27 34 mph 1017.1mb 51f 45f
9:50pm 14ft 11s 7s 29 34 mph 1017.3mb 51f 45f
8:50pm 14ft 10s 7s 29 36 mph 1016.7mb 51f 45f
7:50pm 15ft 10s 7s 29 43 mph 1016.4mb 51f 45f
6:50pm 15ft 10s 8s 29 36 mph 1015.5mb 51f 45f
5:50pm 14.5ft 10s 8s 34 40 mph 1014.7mb 51f 45f
4:50pm 13.5ft 10s 7s 29 38 mph 1014.1mb 51f 46f
3:50pm 13ft 10s 7s 31 36 mph 1014mb 51f 45f
2:50pm 12ft 8s 7s 29 36 mph 1014mb 51f 44f
1:50pm 12ft 9s 7s 29 34 mph 1013.6mb 51f 45f
12:50pm 11ft 9s 7s 27 36 mph 1013.3mb 51f 45f
11:50am 11ft 8s 7s 27 34 mph 1013.2mb 51f 44f
10:50am 11.5ft 9s 7s 27 34 mph 1012.8mb 51f 45f
9:50am 11ft 8s 7s 27 34 mph 1012.3mb 51f 46f
8:50am 10ft 8s 6s 27 34 mph 1012.3mb 51f 46f
7:50am 10ft 8s 6s 29 34 mph 1011.8mb 51f 45f
6:50am 9.5ft 8s 6s 25 31 mph 1011.5mb 51f 46f
5:50am 9ft 9s 6s 25 29 mph 1011.4mb 51f 46f
4:50am 8.5ft 9s 7s 25 31 mph - 51f 46f
3:50am 8ft 8s 6s 22 29 mph 1010.5mb 51f 45f
2:50am 7ft 7s 6s 20 25 mph 1010.2mb 51f 45f
1:50am 7ft 8s 6s 22 31 mph 1010.1mb 51f 42f
12:50am 6.5ft 8s 6s 20 25 mph 1009.4mb 51f 47f
Fri 10/21 11:50pm 6ft 7s 6s 16 20 mph 1009.8mb 51f 46f
10:50pm 7ft 8s 6s 13 18 mph 1010.3mb 51f 45f
9:50pm 6ft 7s 6s 13 20 mph 1010.5mb 51f 46f
8:50pm 6.5ft 7s 6s 13 16 mph 1010.7mb 51f 47f
7:50pm 6ft 7s 6s 11 16 mph 1010.6mb 51f 46f
6:50pm 6ft 6s 6s 18 22 mph 1010.2mb 51f 47f
5:50pm 6ft 7s 6s 18 22 mph 1009.6mb 51f 47f
4:50pm 6ft 8s 6s 18 22 mph 1009.2mb 51f 46f
3:50pm 6ft 8s 6s 20 25 mph 1009mb 51f 46f
2:50pm 6.5ft 8s 6s 18 20 mph 1008.4mb 51f 46f
1:50pm 6.5ft 8s 6s 13 16 mph 1007.7mb 51f 49f
12:50pm 7ft 8s 6s 16 18 mph 1007.8mb 51f 49f
11:50am 7ft 8s 6s 18 22 mph 1007.5mb 51f 49f
10:50am 7ft 9s 6s 20 22 mph 1007.3mb 51f 48f
9:50am 7.5ft 9s 7s 18 20 mph 1007mb 51f 49f
8:50am 7.5ft 9s 7s 16 20 mph 1006.6mb 51f 50f
7:50am 7ft 9s 7s 16 18 mph 1006.3mb 51f 50f
6:50am 7ft 10s 7s 13 16 mph 1006.1mb 51f 50f
5:50am 7ft 9s 7s 13 16 mph 1005.8mb 51f 50f
4:50am 7ft 10s 7s 11 13 mph 1005.4mb 51f 50f